Date,TemperatureHighF,TemperatureAvgF,TemperatureLowF,DewpointHighF,DewpointAvgF,DewpointLowF,HumidityHigh,HumidityAvg,HumidityLow,PressureMaxIn,PressureMinIn,WindSpeedMaxMPH,WindSpeedAvgMPH,GustSpeedMaxMPH,PrecipitationSumIn
2013-11-1,70.5,65.2,56.7,66.2,61.5,55.0,95,88,70,29.78,29.55,30,4,39,0.11
2013-11-2,70.3,59.3,52.2,55.2,50.8,44.2,95,75,53,29.79,29.61,8,0,8,0.00
2013-11-3,53.8,47.2,35.2,45.0,36.9,25.3,86,68,48,30.44,29.78,24,5,24,0.00
2013-11-4,47.8,39.2,31.6,31.3,26.5,23.4,73,61,41,30.63,30.44,18,4,18,0.00
2013-11-5,60.4,48.1,37.8,47.8,40.1,30.0,90,74,59,30.62,30.46,11,2,14,0.00
2013-11-6,67.5,54.9,43.2,56.5,49.3,41.2,94,83,62,30.48,30.04,15,2,15,0.00
2013-11-7,61.3,55.7,45.0,59.2,52.8,40.1,94,90,78,30.04,29.77,32,5,32,0.04
2013-11-8,50.9,44.6,39.4,40.6,33.5,30.2,83,65,52,30.25,29.96,24,6,28,0.00
2013-11-9,51.4,44.4,36.3,39.0,33.6,29.8,81,67,51,30.30,29.99,16,3,17,0.00
2013-11-10,61.2,50.3,41.9,43.2,37.5,33.1,85,63,45,30.10,29.86,29,7,33,0.00
2013-11-11,56.7,49.0,41.2,41.9,36.1,31.6,73,61,50,30.23,29.96,21,6,24,0.00
2013-11-12,51.3,39.5,31.3,42.1,29.1,20.5,91,67,52,30.32,29.93,25,8,27,0.01
2013-11-13,42.4,34.6,28.2,26.4,21.2,17.4,67,58,45,30.40,30.30,24,5,28,0.00
2013-11-14,56.1,43.8,33.3,32.4,25.5,22.3,69,50,28,30.31,30.18,19,5,21,0.00
2013-11-15,58.6,45.3,34.3,40.6,35.3,29.8,91,69,45,30.25,30.15,9,1,11,0.00
2013-11-16,59.2,50.3,44.6,50.9,46.5,38.3,94,87,72,30.32,30.22,10,1,11,0.02
2013-11-17,67.5,58.5,50.7,62.1,55.5,48.7,95,90,78,30.24,29.75,14,3,16,0.00
2013-11-18,67.8,61.1,50.4,61.5,45.9,32.0,96,60,35,29.81,29.62,23,8,26,0.23
2013-11-19,50.4,44.4,36.0,33.6,30.4,26.1,68,58,50,30.35,29.81,28,8,32,0.00
2013-11-20,46.2,37.8,31.5,26.4,23.1,17.6,78,57,35,30.57,30.34,13,2,16,0.00
2013-11-21,54.0,44.1,32.4,45.0,34.6,20.3,80,69,54,30.58,30.37,9,2,12,0.00
2013-11-22,57.9,52.7,48.4,53.1,49.6,43.5,94,89,80,30.37,29.93,13,3,14,0.02
2013-11-23,53.2,43.1,30.7,51.3,32.1,20.5,93,65,48,30.07,29.93,31,10,35,0.00
2013-11-24,31.6,27.4,24.1,20.5,9.8,8.1,63,47,39,30.43,30.07,33,11,35,0.00
2013-11-25,36.7,29.7,23.2,23.7,17.7,10.9,76,61,50,30.52,30.33,16,5,20,0.00
2013-11-26,53.1,37.9,33.4,50.7,30.9,23.0,94,77,58,30.34,29.64,16,4,19,0.63
2013-11-27,63.1,44.6,33.3,61.7,41.8,24.3,95,90,67,29.84,29.37,30,9,37,1.39
2013-11-28,38.7,33.1,29.7,24.4,22.0,20.3,70,64,53,30.47,29.84,28,7,30,0.00
2013-11-29,41.7,33.5,28.2,27.5,24.1,21.6,84,68,54,30.72,30.46,15,2,19,0.00
2013-11-30,41.4,33.3,25.0,31.6,25.4,16.5,78,72,68,30.72,30.36,13,3,17,0.00